Terminal Aerodrome Forecast
Issued by NWS

Home | Current Version | Previous Version | Text Only | Print | Product List | Glossary On
Versions: 1 2 3 4 5 6 7 8 9 10 11 12 13 14 15 16 17 18 19 20 21
000
FTUS42 KJAX 241100
TAFCRG
TAF
KCRG 241120Z 2412/2512 19005KT P6SM FEW020
     FM241400 25007KT P6SM SCT025
     FM242100 21010KT P6SM VCTS BKN040CB
     FM250100 23005KT P6SM SCT050=

USA.gov is the U.S. government's official web portal to all federal, state and local government web resources and services.